Time;durP1;ratioP1;P1;durP2;ratioP2;P2;SDS_P1;SDS_P2;PMS_P1;PMS_P2;Temp;Humidity;BMP_temperature;BMP_pressure;BME280_temperature;BME280_humidity;BME280_pressure;Samples;Min_cycle;Max_cycle;Signal;HPM_P1;HPM_P2
2023/09/30 00:01:49;;;;;;;17.17;9.82;;;;;;;;;;4987034;28;25067;-71
2023/09/30 00:04:15;;;;;;;17.48;8.88;;;;;;;;;;4993131;28;25090;-73
2023/09/30 00:06:41;;;;;;;17.75;8.98;;;;;;;;;;4991566;28;25079;-72
2023/09/30 00:09:07;;;;;;;16.40;8.45;;;;;;;;;;5001161;28;25089;-72
2023/09/30 00:11:33;;;;;;;14.20;8.40;;;;;;;;;;4995940;28;25148;-73
2023/09/30 00:13:59;;;;;;;17.92;8.43;;;;;;;;;;4992183;28;25063;-71
2023/09/30 00:16:27;;;;;;;22.38;9.00;;;;;;;;;;4983319;28;25053;-72
2023/09/30 00:18:54;;;;;;;19.05;8.88;;;;;;;;;;4991138;28;25059;-72
2023/09/30 00:21:20;;;;;;;14.57;8.23;;;;;;;;;;4988579;28;25055;-72
2023/09/30 00:23:46;;;;;;;14.30;8.40;;;;;;;;;;4985594;28;25062;-72
2023/09/30 00:26:12;;;;;;;15.82;8.95;;;;;;;;;;4969406;28;25081;-73
2023/09/30 00:28:38;;;;;;;16.30;9.05;;;;;;;;;;4990905;28;25052;-73
2023/09/30 00:31:08;;;;;;;15.07;8.90;;;;;;;;;;4971709;28;25079;-73
2023/09/30 00:33:34;;;;;;;18.90;8.32;;;;;;;;;;4968408;28;25065;-71
2023/09/30 00:36:05;;;;;;;16.77;8.95;;;;;;;;;;4993422;28;25047;-72
2023/09/30 00:38:31;;;;;;;17.10;8.88;;;;;;;;;;4995120;28;25112;-72
2023/09/30 00:40:57;;;;;;;15.10;9.18;;;;;;;;;;4970751;28;25065;-72
2023/09/30 00:43:23;;;;;;;20.20;10.35;;;;;;;;;;4989493;28;25147;-76
2023/09/30 00:45:52;;;;;;;15.45;8.57;;;;;;;;;;4990935;28;25074;-73
2023/09/30 00:48:18;;;;;;;17.95;8.77;;;;;;;;;;4989538;28;25113;-76
2023/09/30 00:50:44;;;;;;;15.60;7.55;;;;;;;;;;4986380;28;25129;-71
2023/09/30 00:53:10;;;;;;;17.00;8.02;;;;;;;;;;4997340;28;25062;-72
2023/09/30 00:55:37;;;;;;;16.65;9.20;;;;;;;;;;4975269;28;25081;-72
2023/09/30 00:58:03;;;;;;;16.33;8.02;;;;;;;;;;4991524;28;25064;-72
2023/09/30 01:00:29;;;;;;;18.83;9.45;;;;;;;;;;4986471;28;25095;-72
2023/09/30 01:02:56;;;;;;;17.63;8.95;;;;;;;;;;4992530;28;25067;-72
2023/09/30 01:05:22;;;;;;;18.60;8.57;;;;;;;;;;4989256;28;25050;-72
2023/09/30 01:07:48;;;;;;;21.05;9.40;;;;;;;;;;4992513;28;25151;-71
2023/09/30 01:10:15;;;;;;;13.15;7.75;;;;;;;;;;4990859;28;25078;-72
2023/09/30 01:12:42;;;;;;;15.40;8.90;;;;;;;;;;4983734;28;25060;-69
2023/09/30 01:15:09;;;;;;;19.42;9.75;;;;;;;;;;4983639;28;25079;-70
2023/09/30 01:17:35;;;;;;;15.52;9.35;;;;;;;;;;4975865;28;25098;-73
2023/09/30 01:20:05;;;;;;;21.95;9.20;;;;;;;;;;4976881;28;25053;-72
2023/09/30 01:22:31;;;;;;;18.77;8.90;;;;;;;;;;4965408;28;25079;-74
2023/09/30 01:24:57;;;;;;;18.38;8.57;;;;;;;;;;4986467;28;25061;-74
2023/09/30 01:27:25;;;;;;;23.02;9.13;;;;;;;;;;4990663;28;25082;-76
2023/09/30 01:29:51;;;;;;;19.83;8.55;;;;;;;;;;4983036;28;25075;-74
2023/09/30 01:32:17;;;;;;;19.98;9.57;;;;;;;;;;4992561;28;25093;-73
2023/09/30 01:34:44;;;;;;;19.92;9.45;;;;;;;;;;4986328;28;25060;-73
2023/09/30 01:37:10;;;;;;;28.77;10.48;;;;;;;;;;4998404;28;25054;-74
2023/09/30 01:39:37;;;;;;;18.60;9.00;;;;;;;;;;4974431;28;25077;-70
2023/09/30 01:42:03;;;;;;;19.45;9.27;;;;;;;;;;4965500;28;25160;-73
2023/09/30 01:44:29;;;;;;;20.42;9.30;;;;;;;;;;4986062;28;25078;-73
2023/09/30 01:46:55;;;;;;;15.30;8.35;;;;;;;;;;4971465;28;25063;-73
2023/09/30 01:49:24;;;;;;;21.73;9.27;;;;;;;;;;4968278;28;25169;-73
2023/09/30 01:51:50;;;;;;;15.45;9.77;;;;;;;;;;4990936;28;25079;-76
2023/09/30 01:54:16;;;;;;;16.58;8.55;;;;;;;;;;4997366;28;25149;-77
2023/09/30 01:56:42;;;;;;;24.88;8.88;;;;;;;;;;4990594;28;25096;-73
2023/09/30 01:59:08;;;;;;;22.25;9.00;;;;;;;;;;4993916;28;25099;-74
2023/09/30 02:01:34;;;;;;;24.15;10.60;;;;;;;;;;5001755;28;25079;-71
2023/09/30 02:04:00;;;;;;;15.70;8.23;;;;;;;;;;5004178;28;25119;-73
2023/09/30 02:06:26;;;;;;;19.23;8.35;;;;;;;;;;5004369;28;25078;-73
2023/09/30 02:08:52;;;;;;;18.77;9.25;;;;;;;;;;5001967;28;25052;-74
2023/09/30 02:11:22;;;;;;;20.35;9.52;;;;;;;;;;5001287;28;25064;-72
2023/09/30 02:13:48;;;;;;;19.65;8.85;;;;;;;;;;4984509;28;25105;-71
2023/09/30 02:16:14;;;;;;;17.80;10.00;;;;;;;;;;4981482;28;25179;-69
2023/09/30 02:18:44;;;;;;;20.98;8.98;;;;;;;;;;4987359;28;25097;-73
2023/09/30 02:21:10;;;;;;;17.13;9.52;;;;;;;;;;4974219;28;25066;-74
2023/09/30 02:23:36;;;;;;;16.65;9.13;;;;;;;;;;4998289;28;25052;-73
2023/09/30 02:26:03;;;;;;;14.23;8.13;;;;;;;;;;4996622;28;25168;-73
2023/09/30 02:28:34;;;;;;;17.50;8.88;;;;;;;;;;5004789;28;25067;-72
2023/09/30 02:31:00;;;;;;;16.02;9.10;;;;;;;;;;5002973;28;25056;-70
2023/09/30 02:33:27;;;;;;;17.48;8.50;;;;;;;;;;5006619;28;25055;-70
2023/09/30 02:35:53;;;;;;;19.48;9.07;;;;;;;;;;4990160;28;25085;-70
2023/09/30 02:38:20;;;;;;;17.45;9.38;;;;;;;;;;4978630;28;25112;-70
2023/09/30 02:40:48;;;;;;;18.88;9.07;;;;;;;;;;4974807;28;25135;-69
2023/09/30 02:43:14;;;;;;;15.20;8.65;;;;;;;;;;4969311;28;25083;-72
2023/09/30 02:45:40;;;;;;;17.90;8.43;;;;;;;;;;4983031;28;25050;-69
2023/09/30 02:48:08;;;;;;;16.48;9.25;;;;;;;;;;4987941;28;25094;-73
2023/09/30 02:50:34;;;;;;;17.65;9.57;;;;;;;;;;4987432;28;25067;-72
2023/09/30 02:53:00;;;;;;;19.02;8.90;;;;;;;;;;5000707;28;25107;-72
2023/09/30 02:55:26;;;;;;;17.35;9.95;;;;;;;;;;4995456;28;25088;-71
2023/09/30 02:57:52;;;;;;;15.55;8.38;;;;;;;;;;4970201;28;25150;-71
2023/09/30 03:00:25;;;;;;;23.92;10.57;;;;;;;;;;4996540;28;25062;-72
2023/09/30 03:02:55;;;;;;;17.73;10.48;;;;;;;;;;4971724;28;25045;-72
2023/09/30 03:05:22;;;;;;;23.17;10.32;;;;;;;;;;4992743;28;25047;-71
2023/09/30 03:07:50;;;;;;;24.67;11.23;;;;;;;;;;4987142;28;25111;-72
2023/09/30 03:10:23;;;;;;;23.10;10.70;;;;;;;;;;4994693;28;25103;-70
2023/09/30 03:12:52;;;;;;;18.92;10.50;;;;;;;;;;4987693;28;25046;-71
2023/09/30 03:15:18;;;;;;;21.58;11.00;;;;;;;;;;4993510;28;25138;-71
2023/09/30 03:17:44;;;;;;;22.15;11.43;;;;;;;;;;5005085;28;25094;-72
2023/09/30 03:20:14;;;;;;;26.58;11.60;;;;;;;;;;5002146;28;25056;-74
2023/09/30 03:22:40;;;;;;;22.90;11.15;;;;;;;;;;5002013;28;25097;-69
2023/09/30 03:25:08;;;;;;;23.00;10.88;;;;;;;;;;5005586;28;25110;-72
2023/09/30 03:27:35;;;;;;;20.75;11.18;;;;;;;;;;4996644;28;25048;-71
2023/09/30 03:30:01;;;;;;;26.45;12.48;;;;;;;;;;4993463;28;25068;-72
2023/09/30 03:32:29;;;;;;;25.77;12.32;;;;;;;;;;4990705;28;25050;-71
2023/09/30 03:34:59;;;;;;;28.75;13.50;;;;;;;;;;4992166;28;25051;-73
2023/09/30 03:37:26;;;;;;;23.52;12.32;;;;;;;;;;4993812;28;25075;-72
2023/09/30 03:39:53;;;;;;;31.38;13.82;;;;;;;;;;4988276;28;25112;-73
2023/09/30 03:42:19;;;;;;;22.95;13.02;;;;;;;;;;4988528;28;25080;-73
2023/09/30 03:44:45;;;;;;;24.65;13.25;;;;;;;;;;4977092;28;25067;-71
2023/09/30 03:47:11;;;;;;;24.92;13.43;;;;;;;;;;4994864;28;25068;-71
2023/09/30 03:49:38;;;;;;;29.02;14.27;;;;;;;;;;4996899;28;25140;-72
2023/09/30 03:52:06;;;;;;;30.60;12.55;;;;;;;;;;4978725;28;25058;-73
2023/09/30 03:54:32;;;;;;;24.60;13.23;;;;;;;;;;4992369;28;25059;-74
2023/09/30 03:56:59;;;;;;;23.58;14.00;;;;;;;;;;5007797;28;25076;-71
2023/09/30 03:59:26;;;;;;;24.80;13.35;;;;;;;;;;5000471;28;25100;-70
2023/09/30 04:01:53;;;;;;;29.45;14.05;;;;;;;;;;4990649;28;25052;-72
2023/09/30 04:04:21;;;;;;;24.33;13.93;;;;;;;;;;4977444;28;25141;-72
2023/09/30 04:06:47;;;;;;;27.92;14.02;;;;;;;;;;4994907;28;25059;-74
2023/09/30 04:09:14;;;;;;;29.17;14.00;;;;;;;;;;4994371;28;25113;-73
2023/09/30 04:11:42;;;;;;;27.08;13.07;;;;;;;;;;4974482;28;25065;-73
2023/09/30 04:14:08;;;;;;;24.33;13.68;;;;;;;;;;4984985;28;25066;-72
2023/09/30 04:16:35;;;;;;;23.83;12.45;;;;;;;;;;4990515;28;25136;-73
2023/09/30 04:19:01;;;;;;;23.25;13.07;;;;;;;;;;4996128;28;25059;-76
2023/09/30 04:21:29;;;;;;;21.67;13.25;;;;;;;;;;4974696;28;25064;-73
2023/09/30 04:23:55;;;;;;;23.05;11.73;;;;;;;;;;4985703;28;25059;-72
2023/09/30 04:26:22;;;;;;;31.08;14.25;;;;;;;;;;4992921;28;25052;-71
2023/09/30 04:28:49;;;;;;;26.42;13.90;;;;;;;;;;4992078;28;25066;-74
2023/09/30 04:31:15;;;;;;;27.85;15.15;;;;;;;;;;4983100;28;25148;-72
2023/09/30 04:33:41;;;;;;;24.23;13.90;;;;;;;;;;4991250;28;25058;-73
2023/09/30 04:36:11;;;;;;;30.48;14.35;;;;;;;;;;4992642;28;25067;-72
2023/09/30 04:38:39;;;;;;;25.08;14.25;;;;;;;;;;4971339;28;25134;-70
2023/09/30 04:41:07;;;;;;;28.52;14.55;;;;;;;;;;4988248;28;25141;-73
2023/09/30 04:43:33;;;;;;;27.90;13.27;;;;;;;;;;4987876;28;25165;-71
2023/09/30 04:46:00;;;;;;;28.02;15.65;;;;;;;;;;4990069;28;25108;-74
2023/09/30 04:48:26;;;;;;;29.98;15.07;;;;;;;;;;4993548;28;25065;-74
2023/09/30 04:50:52;;;;;;;32.38;14.82;;;;;;;;;;4991132;28;25187;-73
2023/09/30 04:53:18;;;;;;;21.95;14.60;;;;;;;;;;4988736;28;25075;-75
2023/09/30 04:55:45;;;;;;;29.40;15.95;;;;;;;;;;4984593;28;25136;-71
2023/09/30 04:58:12;;;;;;;30.42;15.73;;;;;;;;;;4969022;28;25079;-72
2023/09/30 05:00:39;;;;;;;30.70;14.52;;;;;;;;;;4986020;28;25065;-73
2023/09/30 05:03:05;;;;;;;28.70;16.00;;;;;;;;;;4985616;28;25059;-74
2023/09/30 05:05:31;;;;;;;32.05;15.65;;;;;;;;;;4983081;28;25148;-70
2023/09/30 05:07:57;;;;;;;27.33;15.20;;;;;;;;;;4982643;28;25080;-73
2023/09/30 05:10:24;;;;;;;35.00;15.70;;;;;;;;;;4988666;28;25062;-71
2023/09/30 05:12:53;;;;;;;30.30;15.48;;;;;;;;;;4991397;28;25069;-73
2023/09/30 05:15:20;;;;;;;31.75;16.10;;;;;;;;;;4989042;28;25081;-74
2023/09/30 05:17:46;;;;;;;31.35;15.57;;;;;;;;;;4989222;28;25051;-72
2023/09/30 05:20:13;;;;;;;27.90;16.50;;;;;;;;;;4990227;28;25066;-73
2023/09/30 05:22:40;;;;;;;26.42;14.15;;;;;;;;;;4989815;28;25064;-72
2023/09/30 05:25:07;;;;;;;29.42;15.52;;;;;;;;;;4985592;28;25058;-72
2023/09/30 05:27:33;;;;;;;30.15;16.25;;;;;;;;;;4962160;28;25129;-71
2023/09/30 05:29:59;;;;;;;22.98;14.40;;;;;;;;;;4993817;28;25060;-74
2023/09/30 05:32:26;;;;;;;29.33;15.60;;;;;;;;;;4983031;28;25050;-75
2023/09/30 05:34:54;;;;;;;36.20;16.42;;;;;;;;;;4984407;28;25065;-72
2023/09/30 05:37:21;;;;;;;30.92;17.33;;;;;;;;;;4981110;28;25085;-73
2023/09/30 05:39:48;;;;;;;28.02;16.27;;;;;;;;;;4988042;28;25055;-69
2023/09/30 05:42:15;;;;;;;33.72;17.02;;;;;;;;;;4966011;28;25062;-72
2023/09/30 05:44:42;;;;;;;36.83;16.83;;;;;;;;;;4977172;28;25056;-73
2023/09/30 05:47:08;;;;;;;29.33;16.45;;;;;;;;;;4974224;28;25057;-72
2023/09/30 05:49:36;;;;;;;33.13;17.60;;;;;;;;;;4982458;28;25067;-71
2023/09/30 05:52:02;;;;;;;36.78;18.63;;;;;;;;;;4987489;28;25063;-70
2023/09/30 05:54:28;;;;;;;36.70;17.98;;;;;;;;;;4989186;28;25074;-72
2023/09/30 05:56:56;;;;;;;35.00;20.13;;;;;;;;;;4975973;28;25129;-71
2023/09/30 05:59:24;;;;;;;33.75;17.77;;;;;;;;;;4995375;28;25110;-71
2023/09/30 06:01:50;;;;;;;35.17;17.85;;;;;;;;;;4984358;28;25061;-70
2023/09/30 06:04:17;;;;;;;30.67;17.23;;;;;;;;;;4991147;28;25188;-72
2023/09/30 06:06:43;;;;;;;31.27;16.83;;;;;;;;;;4979642;28;25060;-72
2023/09/30 06:09:09;;;;;;;29.80;15.95;;;;;;;;;;4984905;28;25067;-75
2023/09/30 06:11:35;;;;;;;32.97;16.83;;;;;;;;;;4986348;28;25055;-70
2023/09/30 06:14:02;;;;;;;39.35;17.08;;;;;;;;;;4986927;28;25125;-71
2023/09/30 06:16:31;;;;;;;27.13;16.05;;;;;;;;;;4962676;28;25058;-72
2023/09/30 06:18:57;;;;;;;37.58;17.95;;;;;;;;;;4984271;28;25062;-72
2023/09/30 06:21:28;;;;;;;30.17;16.75;;;;;;;;;;4979552;28;25055;-73
2023/09/30 06:23:55;;;;;;;28.55;16.75;;;;;;;;;;4968061;28;25062;-71
2023/09/30 06:26:21;;;;;;;34.05;15.77;;;;;;;;;;4978264;28;25099;-73
2023/09/30 06:28:47;;;;;;;32.38;16.58;;;;;;;;;;4982556;28;25139;-75
2023/09/30 06:31:15;;;;;;;33.55;17.08;;;;;;;;;;4989846;28;25060;-75
2023/09/30 06:33:41;;;;;;;38.00;17.50;;;;;;;;;;4979740;28;25059;-72
2023/09/30 06:36:11;;;;;;;28.67;17.08;;;;;;;;;;4984789;28;25069;-70
2023/09/30 06:38:37;;;;;;;31.13;17.42;;;;;;;;;;4981177;28;25057;-71
2023/09/30 06:41:03;;;;;;;31.98;17.30;;;;;;;;;;4978701;28;25119;-70
2023/09/30 06:43:29;;;;;;;36.33;16.98;;;;;;;;;;4982683;28;25060;-72
2023/09/30 06:45:55;;;;;;;30.48;16.45;;;;;;;;;;4976690;28;25107;-72
2023/09/30 06:48:22;;;;;;;36.30;17.10;;;;;;;;;;4975504;28;25058;-71
2023/09/30 06:50:52;;;;;;;31.67;15.48;;;;;;;;;;4980946;28;25061;-71
2023/09/30 06:53:18;;;;;;;27.55;15.73;;;;;;;;;;4988919;28;25111;-72
2023/09/30 06:55:45;;;;;;;33.95;16.98;;;;;;;;;;4983269;28;25073;-72
2023/09/30 06:58:11;;;;;;;28.38;16.58;;;;;;;;;;4977377;28;25056;-70
2023/09/30 07:00:38;;;;;;;35.83;17.40;;;;;;;;;;4985923;28;25130;-71
2023/09/30 07:03:04;;;;;;;33.42;18.05;;;;;;;;;;4984599;28;25085;-72
2023/09/30 07:05:30;;;;;;;29.95;16.60;;;;;;;;;;4984851;28;25096;-70
2023/09/30 07:07:57;;;;;;;31.50;16.85;;;;;;;;;;4978637;28;25064;-69
2023/09/30 07:10:23;;;;;;;30.10;16.27;;;;;;;;;;4978858;28;25075;-71
2023/09/30 07:12:49;;;;;;;25.63;14.20;;;;;;;;;;4982260;28;25057;-73
2023/09/30 07:15:15;;;;;;;31.67;15.73;;;;;;;;;;4977902;28;25079;-73
2023/09/30 07:17:41;;;;;;;37.55;17.23;;;;;;;;;;4973805;28;25060;-72
2023/09/30 07:20:07;;;;;;;25.80;16.02;;;;;;;;;;4986158;28;25070;-72
2023/09/30 07:22:34;;;;;;;30.77;15.10;;;;;;;;;;4987760;28;25047;-73
2023/09/30 07:25:00;;;;;;;30.10;15.45;;;;;;;;;;4976205;28;25093;-68
2023/09/30 07:27:26;;;;;;;32.17;15.75;;;;;;;;;;4964297;28;25079;-70
2023/09/30 07:29:52;;;;;;;35.42;17.00;;;;;;;;;;4974288;28;25070;-69
2023/09/30 07:32:18;;;;;;;31.98;17.02;;;;;;;;;;4975522;28;25072;-69
2023/09/30 07:34:44;;;;;;;24.98;15.60;;;;;;;;;;4964185;28;25109;-73
2023/09/30 07:37:10;;;;;;;26.85;15.27;;;;;;;;;;4967338;28;25138;-72
2023/09/30 07:39:37;;;;;;;29.58;16.55;;;;;;;;;;4990161;28;25127;-70
2023/09/30 07:42:03;;;;;;;31.83;17.27;;;;;;;;;;4997956;28;25122;-69
2023/09/30 07:44:29;;;;;;;28.98;16.30;;;;;;;;;;4977089;28;25065;-71
2023/09/30 07:46:55;;;;;;;34.25;16.60;;;;;;;;;;4997699;28;25063;-71
2023/09/30 07:49:21;;;;;;;27.52;15.80;;;;;;;;;;4980083;28;25135;-70
2023/09/30 07:51:47;;;;;;;28.48;16.50;;;;;;;;;;4985627;28;25078;-71
2023/09/30 07:54:13;;;;;;;29.98;15.63;;;;;;;;;;4964179;28;25094;-71
2023/09/30 07:56:39;;;;;;;30.55;17.58;;;;;;;;;;4980016;28;25134;-72
2023/09/30 07:59:05;;;;;;;28.92;15.52;;;;;;;;;;4988378;28;25070;-72
2023/09/30 08:01:31;;;;;;;31.08;15.73;;;;;;;;;;4978081;28;25083;-72
2023/09/30 08:03:57;;;;;;;31.92;15.40;;;;;;;;;;4964905;28;25049;-70
2023/09/30 08:06:23;;;;;;;30.20;16.27;;;;;;;;;;4979402;28;25083;-71
2023/09/30 08:08:49;;;;;;;31.95;14.57;;;;;;;;;;4981354;28;25114;-71
2023/09/30 08:11:15;;;;;;;26.35;13.80;;;;;;;;;;4980419;28;25087;-70
2023/09/30 08:13:41;;;;;;;24.00;13.65;;;;;;;;;;4989306;28;25056;-71
2023/09/30 08:16:07;;;;;;;28.02;14.40;;;;;;;;;;4986653;28;25134;-71
2023/09/30 08:18:33;;;;;;;28.13;12.90;;;;;;;;;;4986997;28;25098;-70
2023/09/30 08:20:59;;;;;;;24.27;11.98;;;;;;;;;;4978749;28;25076;-72
2023/09/30 08:23:25;;;;;;;26.45;13.57;;;;;;;;;;4987034;28;25069;-71
2023/09/30 08:25:52;;;;;;;25.05;12.63;;;;;;;;;;4980897;28;25103;-70
2023/09/30 08:28:18;;;;;;;26.95;13.82;;;;;;;;;;4983811;28;25054;-72
2023/09/30 08:30:45;;;;;;;21.08;12.75;;;;;;;;;;4968794;28;25081;-71
2023/09/30 08:33:11;;;;;;;28.90;14.05;;;;;;;;;;4976154;28;25071;-70
2023/09/30 08:35:38;;;;;;;30.83;14.45;;;;;;;;;;4991349;28;25066;-72
2023/09/30 08:38:04;;;;;;;28.00;15.18;;;;;;;;;;4984533;28;25061;-69
2023/09/30 08:40:30;;;;;;;32.55;17.58;;;;;;;;;;4987297;28;25096;-70
2023/09/30 08:42:56;;;;;;;33.72;18.52;;;;;;;;;;4980842;28;25081;-69
2023/09/30 08:45:22;;;;;;;33.17;19.08;;;;;;;;;;4981375;28;25072;-71
2023/09/30 08:47:48;;;;;;;37.90;20.35;;;;;;;;;;4976168;28;25156;-72
2023/09/30 08:50:16;;;;;;;31.30;18.27;;;;;;;;;;4997379;28;25321;-72
2023/09/30 08:52:43;;;;;;;38.47;21.25;;;;;;;;;;4995059;28;25137;-70
2023/09/30 08:55:09;;;;;;;32.38;19.77;;;;;;;;;;4984698;28;25069;-76
2023/09/30 08:57:41;;;;;;;37.50;21.40;;;;;;;;;;4987462;28;25057;-73
2023/09/30 09:00:11;;;;;;;39.97;21.65;;;;;;;;;;4993961;28;25154;-72
2023/09/30 09:02:37;;;;;;;39.03;22.83;;;;;;;;;;4994251;28;25066;-71
2023/09/30 09:05:03;;;;;;;38.05;22.50;;;;;;;;;;4992225;28;25159;-69
2023/09/30 09:07:30;;;;;;;38.88;22.23;;;;;;;;;;4976110;28;25081;-70
2023/09/30 09:10:05;;;;;;;30.88;16.25;;;;;;;;;;4977706;28;25057;-73
2023/09/30 09:12:33;;;;;;;29.95;15.50;;;;;;;;;;4975325;28;25126;-71
2023/09/30 09:14:59;;;;;;;28.75;16.02;;;;;;;;;;4981348;28;25141;-72
2023/09/30 09:17:40;;;;;;;32.28;17.60;;;;;;;;;;4985231;28;25163;-68
2023/09/30 09:20:09;;;;;;;35.93;18.13;;;;;;;;;;4992511;28;25058;-74
2023/09/30 09:22:42;;;;;;;29.83;15.90;;;;;;;;;;4977692;28;25179;-74
2023/09/30 09:25:08;;;;;;;30.17;14.95;;;;;;;;;;4980159;28;25090;-72
2023/09/30 09:27:35;;;;;;;23.98;13.07;;;;;;;;;;4970718;28;25062;-74
2023/09/30 09:30:17;;;;;;;22.10;12.80;;;;;;;;;;4993001;28;25097;-68
2023/09/30 09:32:59;;;;;;;28.08;13.52;;;;;;;;;;4977383;28;25108;-72
2023/09/30 09:35:27;;;;;;;32.70;12.95;;;;;;;;;;4981718;28;25069;-71
2023/09/30 09:37:59;;;;;;;23.45;13.52;;;;;;;;;;4975686;28;25061;-72
2023/09/30 09:40:29;;;;;;;28.52;14.52;;;;;;;;;;4970066;28;25065;-72
2023/09/30 09:42:55;;;;;;;28.60;15.07;;;;;;;;;;4987759;28;25065;-70
2023/09/30 09:45:22;;;;;;;23.98;13.90;;;;;;;;;;4993422;28;25047;-75
2023/09/30 09:47:49;;;;;;;24.25;12.73;;;;;;;;;;4999453;28;25067;-72
2023/09/30 09:50:15;;;;;;;33.42;13.18;;;;;;;;;;4983033;28;25066;-72
2023/09/30 09:52:43;;;;;;;27.50;13.25;;;;;;;;;;4988802;28;25056;-67
2023/09/30 09:55:10;;;;;;;24.65;12.40;;;;;;;;;;4978720;28;25078;-70
2023/09/30 09:57:37;;;;;;;23.08;12.00;;;;;;;;;;4978348;28;25066;-70
2023/09/30 10:00:05;;;;;;;33.72;14.40;;;;;;;;;;4971739;28;25073;-69
2023/09/30 10:02:33;;;;;;;21.35;12.60;;;;;;;;;;4978651;28;25059;-71
2023/09/30 10:05:01;;;;;;;23.85;11.63;;;;;;;;;;4983193;28;25081;-70
2023/09/30 10:07:33;;;;;;;24.73;12.60;;;;;;;;;;4981185;28;25073;-71
2023/09/30 10:09:59;;;;;;;;;;;;;;;;;;4965616;28;25065;-70
2023/09/30 10:12:26;;;;;;;20.30;10.02;;;;;;;;;;4983536;28;24071;-72
2023/09/30 10:14:52;;;;;;;16.48;8.52;;;;;;;;;;4992933;28;25141;-73
2023/09/30 10:17:18;;;;;;;17.83;8.75;;;;;;;;;;4971800;28;25141;-73
2023/09/30 10:20:04;;;;;;;17.95;7.45;;;;;;;;;;4982664;28;25189;-72
2023/09/30 10:22:30;;;;;;;15.05;5.38;;;;;;;;;;4982766;28;25132;-72
2023/09/30 10:24:57;;;;;;;13.32;5.55;;;;;;;;;;4987898;28;25079;-72
2023/09/30 10:27:31;;;;;;;10.80;3.45;;;;;;;;;;4992599;28;25129;-73
2023/09/30 10:30:15;;;;;;;13.57;5.25;;;;;;;;;;4985678;28;25077;-72
2023/09/30 10:32:53;;;;;;;16.60;5.85;;;;;;;;;;4986947;28;25154;-72
2023/09/30 10:35:20;;;;;;;11.57;4.63;;;;;;;;;;4962761;28;25152;-72
2023/09/30 10:37:46;;;;;;;17.10;5.03;;;;;;;;;;4981369;28;25162;-72
2023/09/30 10:40:28;;;;;;;21.08;5.47;;;;;;;;;;4965983;28;25091;-71
2023/09/30 10:42:56;;;;;;;15.65;4.63;;;;;;;;;;4988897;28;25141;-70
2023/09/30 10:45:43;;;;;;;13.68;4.00;;;;;;;;;;4990186;28;25064;-73
2023/09/30 10:48:27;;;;;;;10.25;4.00;;;;;;;;;;4986594;28;25134;-72
2023/09/30 10:50:55;;;;;;;9.20;3.40;;;;;;;;;;4986173;28;25086;-74
2023/09/30 10:53:21;;;;;;;16.27;4.93;;;;;;;;;;4975142;28;25079;-71
2023/09/30 10:55:54;;;;;;;12.20;4.43;;;;;;;;;;4980764;28;25109;-73
2023/09/30 10:58:20;;;;;;;10.45;4.22;;;;;;;;;;4982560;28;25079;-73
2023/09/30 11:00:53;;;;;;;12.77;3.22;;;;;;;;;;4993183;28;25148;-74
2023/09/30 11:03:23;;;;;;;16.58;3.85;;;;;;;;;;4964730;28;25055;-74
2023/09/30 11:05:51;;;;;;;11.25;3.55;;;;;;;;;;4978364;28;25029;-75
2023/09/30 11:08:18;;;;;;;12.05;3.08;;;;;;;;;;4975690;28;25068;-75
2023/09/30 11:10:50;;;;;;;10.07;3.63;;;;;;;;;;4995676;28;25106;-74
2023/09/30 11:13:17;;;;;;;9.57;3.17;;;;;;;;;;4995991;28;25090;-73
2023/09/30 11:15:44;;;;;;;8.98;3.00;;;;;;;;;;4992179;28;25081;-74
2023/09/30 11:18:17;;;;;;;9.13;3.95;;;;;;;;;;4985559;28;25153;-73
2023/09/30 11:20:44;;;;;;;9.38;2.85;;;;;;;;;;4980479;28;25062;-73
2023/09/30 11:23:14;;;;;;;6.40;2.63;;;;;;;;;;4987602;28;25074;-74
2023/09/30 11:25:41;;;;;;;13.95;3.10;;;;;;;;;;4976190;28;25065;-72
2023/09/30 11:28:17;;;;;;;12.73;3.42;;;;;;;;;;4980367;28;25063;-73
2023/09/30 11:30:55;;;;;;;8.75;3.15;;;;;;;;;;4976414;28;25100;-73
2023/09/30 11:33:22;;;;;;;7.93;3.47;;;;;;;;;;4982161;28;25074;-76
2023/09/30 11:36:00;;;;;;;10.43;3.17;;;;;;;;;;4990555;28;25076;-73
2023/09/30 11:38:27;;;;;;;8.40;2.60;;;;;;;;;;4982507;28;25163;-73
2023/09/30 11:41:04;;;;;;;7.68;3.17;;;;;;;;;;4990153;28;25097;-74
2023/09/30 11:43:30;;;;;;;11.20;2.20;;;;;;;;;;4960300;28;25060;-72
2023/09/30 11:46:08;;;;;;;13.27;3.78;;;;;;;;;;4964962;28;25096;-73
2023/09/30 11:48:35;;;;;;;9.80;3.50;;;;;;;;;;4986054;28;25064;-73
2023/09/30 11:51:02;;;;;;;14.32;3.25;;;;;;;;;;4969993;28;24971;-72
2023/09/30 11:53:30;;;;;;;13.18;3.60;;;;;;;;;;4969212;28;25073;-73
2023/09/30 11:55:57;;;;;;;7.97;3.80;;;;;;;;;;4982597;28;25270;-71
2023/09/30 11:58:24;;;;;;;9.27;3.03;;;;;;;;;;4980093;28;25104;-71
2023/09/30 12:00:50;;;;;;;12.25;4.10;;;;;;;;;;4976209;28;25106;-74
2023/09/30 12:03:17;;;;;;;14.20;4.35;;;;;;;;;;4978478;28;25107;-72
2023/09/30 12:05:45;;;;;;;11.75;3.03;;;;;;;;;;4984180;28;25064;-73
2023/09/30 12:08:11;;;;;;;12.80;4.03;;;;;;;;;;4982689;28;25065;-74
2023/09/30 12:10:37;;;;;;;9.85;3.03;;;;;;;;;;4980656;28;25071;-73
2023/09/30 12:13:03;;;;;;;9.00;2.80;;;;;;;;;;4969081;28;25050;-69
2023/09/30 12:15:29;;;;;;;10.88;3.15;;;;;;;;;;4985505;28;25154;-73
2023/09/30 12:17:55;;;;;;;7.95;3.22;;;;;;;;;;4973054;28;25100;-76
2023/09/30 12:20:21;;;;;;;13.85;3.97;;;;;;;;;;4993209;28;25079;-73
2023/09/30 12:22:48;;;;;;;9.77;4.00;;;;;;;;;;4987811;28;25054;-71
2023/09/30 12:25:14;;;;;;;9.50;2.90;;;;;;;;;;4994917;28;25084;-72
2023/09/30 12:27:41;;;;;;;6.90;2.60;;;;;;;;;;4983790;28;25072;-70
2023/09/30 12:30:07;;;;;;;9.05;2.42;;;;;;;;;;4990482;28;25164;-69
2023/09/30 12:32:33;;;;;;;9.05;2.90;;;;;;;;;;4984836;28;25176;-69
2023/09/30 12:34:59;;;;;;;10.05;3.38;;;;;;;;;;4974848;28;25137;-74
2023/09/30 12:37:25;;;;;;;7.32;2.92;;;;;;;;;;4972529;28;25073;-72
2023/09/30 12:39:51;;;;;;;13.13;3.60;;;;;;;;;;4979408;28;25146;-71
2023/09/30 12:42:17;;;;;;;7.82;3.22;;;;;;;;;;4978892;28;25072;-72
2023/09/30 12:44:43;;;;;;;13.93;4.07;;;;;;;;;;4978714;28;25065;-73
2023/09/30 12:47:09;;;;;;;9.10;3.22;;;;;;;;;;4962329;28;25064;-72
2023/09/30 12:49:35;;;;;;;14.65;3.70;;;;;;;;;;4981584;28;25050;-72
2023/09/30 12:52:01;;;;;;;13.50;3.38;;;;;;;;;;4979211;28;25063;-70
2023/09/30 12:54:27;;;;;;;11.65;3.88;;;;;;;;;;4981251;28;25091;-71
2023/09/30 12:56:56;;;;;;;12.63;3.85;;;;;;;;;;4986465;28;25136;-77
2023/09/30 12:59:25;;;;;;;11.65;4.00;;;;;;;;;;4969756;28;25077;-75
2023/09/30 13:01:51;;;;;;;9.95;3.47;;;;;;;;;;4984873;28;25066;-77
2023/09/30 13:04:18;;;;;;;12.20;3.72;;;;;;;;;;4983209;28;25077;-76
2023/09/30 13:06:44;;;;;;;10.23;4.38;;;;;;;;;;4967780;28;25129;-74
2023/09/30 13:09:11;;;;;;;9.32;3.85;;;;;;;;;;4997563;28;25071;-72
2023/09/30 13:11:37;;;;;;;13.05;4.88;;;;;;;;;;4994742;28;25049;-72
2023/09/30 13:14:04;;;;;;;11.45;3.30;;;;;;;;;;5006543;28;25065;-76
2023/09/30 13:16:30;;;;;;;8.85;3.33;;;;;;;;;;4996223;28;25103;-72
2023/09/30 13:18:56;;;;;;;14.30;3.97;;;;;;;;;;4990828;28;25067;-73
2023/09/30 13:21:22;;;;;;;12.85;3.17;;;;;;;;;;4986674;28;25057;-73
2023/09/30 13:23:48;;;;;;;10.10;3.08;;;;;;;;;;4977100;28;25056;-75
2023/09/30 13:26:14;;;;;;;10.25;3.72;;;;;;;;;;4968781;28;25105;-73
2023/09/30 13:28:40;;;;;;;11.68;3.33;;;;;;;;;;4990478;28;25092;-74
2023/09/30 13:31:07;;;;;;;11.20;3.33;;;;;;;;;;4987477;28;25120;-73
2023/09/30 13:33:33;;;;;;;8.18;2.63;;;;;;;;;;4996221;28;25061;-73
2023/09/30 13:36:00;;;;;;;10.80;3.13;;;;;;;;;;4995609;28;25060;-73
2023/09/30 13:38:26;;;;;;;12.30;3.72;;;;;;;;;;4988087;28;25066;-72
2023/09/30 13:40:52;;;;;;;11.38;3.20;;;;;;;;;;4987789;28;25053;-74
2023/09/30 13:43:18;;;;;;;14.98;3.72;;;;;;;;;;4984499;28;25116;-72
2023/09/30 13:45:44;;;;;;;11.88;3.80;;;;;;;;;;4988445;28;25122;-74
2023/09/30 13:48:11;;;;;;;10.60;3.50;;;;;;;;;;4987853;28;25146;-74
2023/09/30 13:50:37;;;;;;;11.43;3.13;;;;;;;;;;4992037;28;25077;-75
2023/09/30 13:53:03;;;;;;;8.45;2.88;;;;;;;;;;4985680;28;25078;-73
2023/09/30 13:55:29;;;;;;;10.70;3.58;;;;;;;;;;4987306;28;25072;-73
2023/09/30 13:57:55;;;;;;;10.90;3.28;;;;;;;;;;4984550;28;25068;-74
2023/09/30 14:00:21;;;;;;;13.45;4.15;;;;;;;;;;4989914;28;25076;-75
2023/09/30 14:02:47;;;;;;;11.63;4.07;;;;;;;;;;4983097;28;25062;-73
2023/09/30 14:05:13;;;;;;;13.25;3.95;;;;;;;;;;4988970;28;25069;-74
2023/09/30 14:07:43;;;;;;;11.68;4.05;;;;;;;;;;4988289;28;25054;-74
2023/09/30 14:10:12;;;;;;;10.90;3.17;;;;;;;;;;4982622;28;25082;-73
2023/09/30 14:12:39;;;;;;;10.30;2.92;;;;;;;;;;4984650;28;25160;-73
2023/09/30 14:15:05;;;;;;;17.70;3.97;;;;;;;;;;4993372;28;25111;-73
2023/09/30 14:17:32;;;;;;;12.18;3.63;;;;;;;;;;4983822;28;25160;-71
2023/09/30 14:19:58;;;;;;;11.07;3.35;;;;;;;;;;4985921;28;25168;-72
2023/09/30 14:22:25;;;;;;;13.82;4.57;;;;;;;;;;4977040;28;25051;-72
2023/09/30 14:24:51;;;;;;;12.88;3.97;;;;;;;;;;4975313;28;25064;-70